sensor_id;sensor_type;location;lat;lon;timestamp;P1;durP1;ratioP1;P2;durP2;ratioP2
56051;SDS011;41919;42.648;23.384;2023-05-07T00:00:09;4.80;;;2.97;;
56051;SDS011;41919;42.648;23.384;2023-05-07T00:02:36;5.00;;;3.55;;
56051;SDS011;41919;42.648;23.384;2023-05-07T00:05:02;7.15;;;3.03;;
56051;SDS011;41919;42.648;23.384;2023-05-07T00:07:28;6.13;;;3.22;;
56051;SDS011;41919;42.648;23.384;2023-05-07T00:09:54;4.90;;;3.25;;
56051;SDS011;41919;42.648;23.384;2023-05-07T00:12:19;5.15;;;3.53;;
56051;SDS011;41919;42.648;23.384;2023-05-07T00:14:45;6.97;;;3.40;;
56051;SDS011;41919;42.648;23.384;2023-05-07T00:17:10;7.78;;;4.10;;
56051;SDS011;41919;42.648;23.384;2023-05-07T00:19:36;5.22;;;3.42;;
56051;SDS011;41919;42.648;23.384;2023-05-07T00:22:01;6.53;;;3.38;;
56051;SDS011;41919;42.648;23.384;2023-05-07T00:24:27;5.60;;;3.90;;
56051;SDS011;41919;42.648;23.384;2023-05-07T00:26:52;3.72;;;3.00;;
56051;SDS011;41919;42.648;23.384;2023-05-07T00:29:18;4.68;;;3.60;;
56051;SDS011;41919;42.648;23.384;2023-05-07T00:31:43;4.30;;;3.30;;
56051;SDS011;41919;42.648;23.384;2023-05-07T00:34:09;5.00;;;3.70;;
56051;SDS011;41919;42.648;23.384;2023-05-07T00:36:34;4.43;;;3.30;;
56051;SDS011;41919;42.648;23.384;2023-05-07T00:39:00;5.03;;;3.33;;
56051;SDS011;41919;42.648;23.384;2023-05-07T00:41:28;6.38;;;3.30;;
56051;SDS011;41919;42.648;23.384;2023-05-07T00:43:53;4.45;;;3.47;;
56051;SDS011;41919;42.648;23.384;2023-05-07T00:46:20;7.63;;;3.45;;
56051;SDS011;41919;42.648;23.384;2023-05-07T00:48:46;7.22;;;4.25;;
56051;SDS011;41919;42.648;23.384;2023-05-07T00:51:12;5.70;;;4.20;;
56051;SDS011;41919;42.648;23.384;2023-05-07T00:53:38;5.28;;;3.58;;
56051;SDS011;41919;42.648;23.384;2023-05-07T00:56:04;8.27;;;3.35;;
56051;SDS011;41919;42.648;23.384;2023-05-07T00:58:31;3.53;;;3.05;;
56051;SDS011;41919;42.648;23.384;2023-05-07T01:00:57;4.55;;;3.53;;
56051;SDS011;41919;42.648;23.384;2023-05-07T01:03:23;5.90;;;3.35;;
56051;SDS011;41919;42.648;23.384;2023-05-07T01:05:48;4.47;;;3.65;;
56051;SDS011;41919;42.648;23.384;2023-05-07T01:08:15;6.55;;;3.95;;
56051;SDS011;41919;42.648;23.384;2023-05-07T01:10:42;4.32;;;3.30;;
56051;SDS011;41919;42.648;23.384;2023-05-07T01:13:09;5.38;;;3.75;;
56051;SDS011;41919;42.648;23.384;2023-05-07T01:15:36;6.60;;;3.53;;
56051;SDS011;41919;42.648;23.384;2023-05-07T01:18:02;6.30;;;4.00;;
56051;SDS011;41919;42.648;23.384;2023-05-07T01:20:28;5.15;;;3.97;;
56051;SDS011;41919;42.648;23.384;2023-05-07T01:22:53;5.57;;;4.25;;
56051;SDS011;41919;42.648;23.384;2023-05-07T01:25:20;5.20;;;3.40;;
56051;SDS011;41919;42.648;23.384;2023-05-07T01:27:45;4.15;;;3.30;;
56051;SDS011;41919;42.648;23.384;2023-05-07T01:30:11;5.85;;;4.53;;
56051;SDS011;41919;42.648;23.384;2023-05-07T01:32:42;7.57;;;5.00;;
56051;SDS011;41919;42.648;23.384;2023-05-07T01:35:13;6.45;;;4.10;;
56051;SDS011;41919;42.648;23.384;2023-05-07T01:37:43;6.15;;;4.32;;
56051;SDS011;41919;42.648;23.384;2023-05-07T01:40:10;5.88;;;4.43;;
56051;SDS011;41919;42.648;23.384;2023-05-07T01:42:36;7.85;;;4.43;;
56051;SDS011;41919;42.648;23.384;2023-05-07T01:45:02;6.75;;;4.72;;
56051;SDS011;41919;42.648;23.384;2023-05-07T01:47:29;6.07;;;4.43;;
56051;SDS011;41919;42.648;23.384;2023-05-07T01:49:55;7.40;;;4.82;;
56051;SDS011;41919;42.648;23.384;2023-05-07T01:52:21;7.07;;;4.50;;
56051;SDS011;41919;42.648;23.384;2023-05-07T01:54:46;6.80;;;4.85;;
56051;SDS011;41919;42.648;23.384;2023-05-07T01:57:11;8.07;;;6.03;;
56051;SDS011;41919;42.648;23.384;2023-05-07T01:59:37;7.38;;;5.30;;
56051;SDS011;41919;42.648;23.384;2023-05-07T02:02:02;7.15;;;5.60;;
56051;SDS011;41919;42.648;23.384;2023-05-07T02:04:28;7.45;;;5.47;;
56051;SDS011;41919;42.648;23.384;2023-05-07T02:06:53;6.97;;;5.78;;
56051;SDS011;41919;42.648;23.384;2023-05-07T02:09:18;8.43;;;5.80;;
56051;SDS011;41919;42.648;23.384;2023-05-07T02:11:44;8.10;;;5.97;;
56051;SDS011;41919;42.648;23.384;2023-05-07T02:14:10;10.18;;;6.15;;
56051;SDS011;41919;42.648;23.384;2023-05-07T02:16:35;9.77;;;5.70;;
56051;SDS011;41919;42.648;23.384;2023-05-07T02:19:01;9.00;;;5.43;;
56051;SDS011;41919;42.648;23.384;2023-05-07T02:21:27;9.30;;;6.20;;
56051;SDS011;41919;42.648;23.384;2023-05-07T02:23:52;10.35;;;6.90;;
56051;SDS011;41919;42.648;23.384;2023-05-07T02:26:18;10.27;;;6.57;;
56051;SDS011;41919;42.648;23.384;2023-05-07T02:28:43;10.27;;;7.20;;
56051;SDS011;41919;42.648;23.384;2023-05-07T02:31:09;9.90;;;6.47;;
56051;SDS011;41919;42.648;23.384;2023-05-07T02:33:34;8.57;;;6.35;;
56051;SDS011;41919;42.648;23.384;2023-05-07T02:36:07;9.40;;;6.50;;
56051;SDS011;41919;42.648;23.384;2023-05-07T02:38:33;9.60;;;6.53;;
56051;SDS011;41919;42.648;23.384;2023-05-07T02:40:59;10.82;;;6.32;;
56051;SDS011;41919;42.648;23.384;2023-05-07T02:43:25;8.80;;;6.50;;
56051;SDS011;41919;42.648;23.384;2023-05-07T02:45:59;10.18;;;6.72;;
56051;SDS011;41919;42.648;23.384;2023-05-07T02:48:28;9.85;;;6.88;;
56051;SDS011;41919;42.648;23.384;2023-05-07T02:50:54;9.30;;;6.10;;
56051;SDS011;41919;42.648;23.384;2023-05-07T02:53:19;15.90;;;9.25;;
56051;SDS011;41919;42.648;23.384;2023-05-07T02:55:45;10.63;;;6.10;;
56051;SDS011;41919;42.648;23.384;2023-05-07T02:58:10;9.90;;;6.35;;
56051;SDS011;41919;42.648;23.384;2023-05-07T03:00:36;9.30;;;6.43;;
56051;SDS011;41919;42.648;23.384;2023-05-07T03:03:01;9.88;;;6.75;;
56051;SDS011;41919;42.648;23.384;2023-05-07T03:05:27;9.52;;;6.47;;
56051;SDS011;41919;42.648;23.384;2023-05-07T03:07:52;13.10;;;7.57;;
56051;SDS011;41919;42.648;23.384;2023-05-07T03:10:17;12.18;;;7.55;;
56051;SDS011;41919;42.648;23.384;2023-05-07T03:12:43;12.00;;;7.95;;
56051;SDS011;41919;42.648;23.384;2023-05-07T03:15:09;14.20;;;8.00;;
56051;SDS011;41919;42.648;23.384;2023-05-07T03:17:36;12.25;;;7.82;;
56051;SDS011;41919;42.648;23.384;2023-05-07T03:20:01;11.82;;;7.70;;
56051;SDS011;41919;42.648;23.384;2023-05-07T03:22:27;12.68;;;8.30;;
56051;SDS011;41919;42.648;23.384;2023-05-07T03:24:53;12.48;;;7.05;;
56051;SDS011;41919;42.648;23.384;2023-05-07T03:27:18;13.73;;;9.15;;
56051;SDS011;41919;42.648;23.384;2023-05-07T03:29:43;14.27;;;8.43;;
56051;SDS011;41919;42.648;23.384;2023-05-07T03:32:09;14.38;;;8.55;;
56051;SDS011;41919;42.648;23.384;2023-05-07T03:34:35;14.18;;;8.68;;
56051;SDS011;41919;42.648;23.384;2023-05-07T03:37:00;16.02;;;9.93;;
56051;SDS011;41919;42.648;23.384;2023-05-07T03:39:26;16.20;;;9.35;;
56051;SDS011;41919;42.648;23.384;2023-05-07T03:41:51;14.38;;;8.88;;
56051;SDS011;41919;42.648;23.384;2023-05-07T03:44:17;14.48;;;8.70;;
56051;SDS011;41919;42.648;23.384;2023-05-07T03:46:42;15.07;;;9.07;;
56051;SDS011;41919;42.648;23.384;2023-05-07T03:49:07;15.05;;;9.43;;
56051;SDS011;41919;42.648;23.384;2023-05-07T03:51:33;13.40;;;8.50;;
56051;SDS011;41919;42.648;23.384;2023-05-07T03:53:58;13.27;;;8.75;;
56051;SDS011;41919;42.648;23.384;2023-05-07T03:56:24;14.18;;;8.80;;
56051;SDS011;41919;42.648;23.384;2023-05-07T03:58:51;13.90;;;8.75;;
56051;SDS011;41919;42.648;23.384;2023-05-07T04:01:17;11.40;;;8.15;;
56051;SDS011;41919;42.648;23.384;2023-05-07T04:03:43;13.95;;;8.45;;
56051;SDS011;41919;42.648;23.384;2023-05-07T04:06:08;12.30;;;8.27;;
56051;SDS011;41919;42.648;23.384;2023-05-07T04:08:33;12.55;;;7.93;;
56051;SDS011;41919;42.648;23.384;2023-05-07T04:10:59;12.77;;;8.65;;
56051;SDS011;41919;42.648;23.384;2023-05-07T04:13:24;15.25;;;8.30;;
56051;SDS011;41919;42.648;23.384;2023-05-07T04:15:50;14.00;;;8.50;;
56051;SDS011;41919;42.648;23.384;2023-05-07T04:18:16;11.27;;;8.27;;
56051;SDS011;41919;42.648;23.384;2023-05-07T04:20:42;9.40;;;7.20;;
56051;SDS011;41919;42.648;23.384;2023-05-07T04:23:08;11.05;;;8.27;;
56051;SDS011;41919;42.648;23.384;2023-05-07T04:25:33;14.25;;;7.75;;
56051;SDS011;41919;42.648;23.384;2023-05-07T04:27:59;15.43;;;8.05;;
56051;SDS011;41919;42.648;23.384;2023-05-07T04:30:25;13.75;;;7.47;;
56051;SDS011;41919;42.648;23.384;2023-05-07T04:32:50;11.10;;;7.38;;
56051;SDS011;41919;42.648;23.384;2023-05-07T04:35:17;13.32;;;7.72;;
56051;SDS011;41919;42.648;23.384;2023-05-07T04:37:42;13.27;;;7.55;;
56051;SDS011;41919;42.648;23.384;2023-05-07T04:40:08;8.82;;;6.80;;
56051;SDS011;41919;42.648;23.384;2023-05-07T04:42:34;9.55;;;7.40;;
56051;SDS011;41919;42.648;23.384;2023-05-07T04:44:59;10.27;;;7.13;;
56051;SDS011;41919;42.648;23.384;2023-05-07T04:47:25;9.95;;;7.05;;
56051;SDS011;41919;42.648;23.384;2023-05-07T04:49:50;9.75;;;7.45;;
56051;SDS011;41919;42.648;23.384;2023-05-07T04:52:16;12.85;;;7.82;;
56051;SDS011;41919;42.648;23.384;2023-05-07T04:54:41;9.15;;;6.53;;
56051;SDS011;41919;42.648;23.384;2023-05-07T04:57:07;8.88;;;6.72;;
56051;SDS011;41919;42.648;23.384;2023-05-07T04:59:32;8.15;;;6.57;;
56051;SDS011;41919;42.648;23.384;2023-05-07T05:01:58;8.88;;;7.10;;
56051;SDS011;41919;42.648;23.384;2023-05-07T05:04:23;10.45;;;7.47;;
56051;SDS011;41919;42.648;23.384;2023-05-07T05:06:49;8.48;;;7.13;;
56051;SDS011;41919;42.648;23.384;2023-05-07T05:09:14;9.13;;;6.63;;
56051;SDS011;41919;42.648;23.384;2023-05-07T05:11:41;12.43;;;7.43;;
56051;SDS011;41919;42.648;23.384;2023-05-07T05:14:06;11.82;;;7.25;;
56051;SDS011;41919;42.648;23.384;2023-05-07T05:16:31;9.93;;;7.15;;
56051;SDS011;41919;42.648;23.384;2023-05-07T05:18:57;11.68;;;7.50;;
56051;SDS011;41919;42.648;23.384;2023-05-07T05:21:23;9.88;;;6.88;;
56051;SDS011;41919;42.648;23.384;2023-05-07T05:23:48;10.88;;;7.57;;
56051;SDS011;41919;42.648;23.384;2023-05-07T05:26:14;10.93;;;7.88;;
56051;SDS011;41919;42.648;23.384;2023-05-07T05:28:39;8.38;;;6.80;;
56051;SDS011;41919;42.648;23.384;2023-05-07T05:31:05;9.98;;;7.50;;
56051;SDS011;41919;42.648;23.384;2023-05-07T05:33:30;10.05;;;7.63;;
56051;SDS011;41919;42.648;23.384;2023-05-07T05:35:56;9.15;;;6.65;;
56051;SDS011;41919;42.648;23.384;2023-05-07T05:38:21;8.73;;;6.50;;
56051;SDS011;41919;42.648;23.384;2023-05-07T05:40:47;9.93;;;6.60;;
56051;SDS011;41919;42.648;23.384;2023-05-07T05:43:13;9.18;;;6.20;;
56051;SDS011;41919;42.648;23.384;2023-05-07T05:45:39;9.88;;;6.63;;
56051;SDS011;41919;42.648;23.384;2023-05-07T05:48:05;9.07;;;6.13;;
56051;SDS011;41919;42.648;23.384;2023-05-07T05:50:31;8.20;;;6.38;;
56051;SDS011;41919;42.648;23.384;2023-05-07T05:52:56;6.63;;;5.82;;
56051;SDS011;41919;42.648;23.384;2023-05-07T05:55:22;7.00;;;6.20;;
56051;SDS011;41919;42.648;23.384;2023-05-07T05:57:48;9.52;;;6.90;;
56051;SDS011;41919;42.648;23.384;2023-05-07T06:00:15;8.77;;;5.97;;
56051;SDS011;41919;42.648;23.384;2023-05-07T06:02:41;10.10;;;6.18;;
56051;SDS011;41919;42.648;23.384;2023-05-07T06:05:07;7.25;;;6.28;;
56051;SDS011;41919;42.648;23.384;2023-05-07T06:07:33;7.75;;;6.70;;
56051;SDS011;41919;42.648;23.384;2023-05-07T06:09:59;7.97;;;5.93;;
56051;SDS011;41919;42.648;23.384;2023-05-07T06:12:25;7.10;;;5.80;;
56051;SDS011;41919;42.648;23.384;2023-05-07T06:14:50;6.50;;;5.80;;
56051;SDS011;41919;42.648;23.384;2023-05-07T06:17:16;10.45;;;7.22;;
56051;SDS011;41919;42.648;23.384;2023-05-07T06:19:41;9.00;;;6.93;;
56051;SDS011;41919;42.648;23.384;2023-05-07T06:22:07;9.93;;;6.40;;
56051;SDS011;41919;42.648;23.384;2023-05-07T06:24:32;7.70;;;6.15;;
56051;SDS011;41919;42.648;23.384;2023-05-07T06:26:57;8.48;;;6.50;;
56051;SDS011;41919;42.648;23.384;2023-05-07T06:29:23;9.50;;;6.40;;
56051;SDS011;41919;42.648;23.384;2023-05-07T06:31:51;6.45;;;5.75;;
56051;SDS011;41919;42.648;23.384;2023-05-07T06:34:19;7.25;;;5.10;;
56051;SDS011;41919;42.648;23.384;2023-05-07T06:36:45;8.45;;;6.05;;
56051;SDS011;41919;42.648;23.384;2023-05-07T06:39:10;7.95;;;5.65;;
56051;SDS011;41919;42.648;23.384;2023-05-07T06:41:36;8.57;;;5.68;;
56051;SDS011;41919;42.648;23.384;2023-05-07T06:44:02;6.90;;;6.13;;
56051;SDS011;41919;42.648;23.384;2023-05-07T06:46:28;6.38;;;5.80;;
56051;SDS011;41919;42.648;23.384;2023-05-07T06:48:53;10.23;;;5.95;;
56051;SDS011;41919;42.648;23.384;2023-05-07T06:51:19;6.93;;;6.22;;
56051;SDS011;41919;42.648;23.384;2023-05-07T06:53:44;7.35;;;5.68;;
56051;SDS011;41919;42.648;23.384;2023-05-07T06:56:10;8.23;;;6.32;;
56051;SDS011;41919;42.648;23.384;2023-05-07T06:58:35;7.88;;;5.70;;
56051;SDS011;41919;42.648;23.384;2023-05-07T07:01:02;6.30;;;5.32;;
56051;SDS011;41919;42.648;23.384;2023-05-07T07:03:27;6.93;;;6.05;;
56051;SDS011;41919;42.648;23.384;2023-05-07T07:05:53;7.60;;;6.15;;
56051;SDS011;41919;42.648;23.384;2023-05-07T07:08:20;8.98;;;5.50;;
56051;SDS011;41919;42.648;23.384;2023-05-07T07:10:48;5.63;;;5.13;;
56051;SDS011;41919;42.648;23.384;2023-05-07T07:13:14;7.90;;;5.90;;
56051;SDS011;41919;42.648;23.384;2023-05-07T07:15:39;8.45;;;6.05;;
56051;SDS011;41919;42.648;23.384;2023-05-07T07:18:05;6.63;;;5.93;;
56051;SDS011;41919;42.648;23.384;2023-05-07T07:20:31;6.05;;;5.40;;
56051;SDS011;41919;42.648;23.384;2023-05-07T07:22:57;7.22;;;5.63;;
56051;SDS011;41919;42.648;23.384;2023-05-07T07:25:22;11.88;;;5.45;;
56051;SDS011;41919;42.648;23.384;2023-05-07T07:27:48;10.35;;;5.90;;
56051;SDS011;41919;42.648;23.384;2023-05-07T07:30:14;6.55;;;5.47;;
56051;SDS011;41919;42.648;23.384;2023-05-07T07:32:40;6.22;;;5.05;;
56051;SDS011;41919;42.648;23.384;2023-05-07T07:35:05;6.88;;;5.38;;
56051;SDS011;41919;42.648;23.384;2023-05-07T07:37:31;8.90;;;5.65;;
56051;SDS011;41919;42.648;23.384;2023-05-07T07:39:56;6.43;;;5.50;;
56051;SDS011;41919;42.648;23.384;2023-05-07T07:42:22;7.78;;;6.03;;
56051;SDS011;41919;42.648;23.384;2023-05-07T07:44:47;6.60;;;5.38;;
56051;SDS011;41919;42.648;23.384;2023-05-07T07:47:13;6.45;;;5.10;;
56051;SDS011;41919;42.648;23.384;2023-05-07T07:49:38;10.27;;;5.82;;
56051;SDS011;41919;42.648;23.384;2023-05-07T07:52:04;6.43;;;5.63;;
56051;SDS011;41919;42.648;23.384;2023-05-07T07:54:29;6.20;;;5.57;;
56051;SDS011;41919;42.648;23.384;2023-05-07T07:56:55;8.38;;;5.65;;
56051;SDS011;41919;42.648;23.384;2023-05-07T07:59:20;9.98;;;5.85;;
56051;SDS011;41919;42.648;23.384;2023-05-07T08:01:46;8.35;;;5.45;;
56051;SDS011;41919;42.648;23.384;2023-05-07T08:04:13;8.68;;;5.60;;
56051;SDS011;41919;42.648;23.384;2023-05-07T08:06:38;7.50;;;6.30;;
56051;SDS011;41919;42.648;23.384;2023-05-07T08:09:04;8.85;;;6.35;;
56051;SDS011;41919;42.648;23.384;2023-05-07T08:11:29;8.63;;;5.90;;
56051;SDS011;41919;42.648;23.384;2023-05-07T08:13:55;8.98;;;6.25;;
56051;SDS011;41919;42.648;23.384;2023-05-07T08:16:21;7.60;;;6.28;;
56051;SDS011;41919;42.648;23.384;2023-05-07T08:18:47;6.63;;;5.85;;
56051;SDS011;41919;42.648;23.384;2023-05-07T08:21:12;7.18;;;5.93;;
56051;SDS011;41919;42.648;23.384;2023-05-07T08:23:38;6.95;;;5.78;;
56051;SDS011;41919;42.648;23.384;2023-05-07T08:26:03;10.60;;;6.10;;
56051;SDS011;41919;42.648;23.384;2023-05-07T08:28:29;8.52;;;5.93;;
56051;SDS011;41919;42.648;23.384;2023-05-07T08:30:54;7.72;;;5.50;;
56051;SDS011;41919;42.648;23.384;2023-05-07T08:33:21;8.18;;;5.50;;
56051;SDS011;41919;42.648;23.384;2023-05-07T08:35:47;9.88;;;5.82;;
56051;SDS011;41919;42.648;23.384;2023-05-07T08:38:12;6.97;;;5.50;;
56051;SDS011;41919;42.648;23.384;2023-05-07T08:40:39;5.97;;;5.38;;
56051;SDS011;41919;42.648;23.384;2023-05-07T08:43:06;8.18;;;5.75;;
56051;SDS011;41919;42.648;23.384;2023-05-07T08:45:34;8.30;;;5.50;;
56051;SDS011;41919;42.648;23.384;2023-05-07T08:48:05;8.20;;;5.10;;
56051;SDS011;41919;42.648;23.384;2023-05-07T08:50:37;7.82;;;5.88;;
56051;SDS011;41919;42.648;23.384;2023-05-07T08:53:04;6.05;;;5.45;;
56051;SDS011;41919;42.648;23.384;2023-05-07T08:55:30;7.85;;;4.90;;
56051;SDS011;41919;42.648;23.384;2023-05-07T08:57:55;7.20;;;5.13;;
56051;SDS011;41919;42.648;23.384;2023-05-07T09:00:21;6.18;;;4.95;;
56051;SDS011;41919;42.648;23.384;2023-05-07T09:02:46;5.35;;;4.03;;
56051;SDS011;41919;42.648;23.384;2023-05-07T09:05:12;4.20;;;3.55;;
56051;SDS011;41919;42.648;23.384;2023-05-07T09:07:37;3.97;;;3.58;;
56051;SDS011;41919;42.648;23.384;2023-05-07T09:10:03;4.35;;;2.50;;
56051;SDS011;41919;42.648;23.384;2023-05-07T09:12:29;4.18;;;2.90;;
56051;SDS011;41919;42.648;23.384;2023-05-07T09:14:55;5.78;;;3.05;;
56051;SDS011;41919;42.648;23.384;2023-05-07T09:17:21;4.82;;;3.70;;
56051;SDS011;41919;42.648;23.384;2023-05-07T09:19:46;6.22;;;4.90;;
56051;SDS011;41919;42.648;23.384;2023-05-07T09:22:12;6.93;;;4.22;;
56051;SDS011;41919;42.648;23.384;2023-05-07T09:24:38;4.90;;;4.50;;
56051;SDS011;41919;42.648;23.384;2023-05-07T09:27:04;5.38;;;4.00;;
56051;SDS011;41919;42.648;23.384;2023-05-07T09:29:30;5.45;;;3.90;;
56051;SDS011;41919;42.648;23.384;2023-05-07T09:32:05;5.82;;;4.40;;
56051;SDS011;41919;42.648;23.384;2023-05-07T09:34:31;7.25;;;4.22;;
56051;SDS011;41919;42.648;23.384;2023-05-07T09:37:01;5.68;;;3.35;;
56051;SDS011;41919;42.648;23.384;2023-05-07T09:39:37;5.95;;;3.95;;
56051;SDS011;41919;42.648;23.384;2023-05-07T09:42:04;4.40;;;3.78;;
56051;SDS011;41919;42.648;23.384;2023-05-07T09:44:31;5.20;;;3.38;;
56051;SDS011;41919;42.648;23.384;2023-05-07T09:46:57;3.67;;;3.22;;
56051;SDS011;41919;42.648;23.384;2023-05-07T09:49:25;3.90;;;3.17;;
56051;SDS011;41919;42.648;23.384;2023-05-07T09:51:57;3.97;;;3.35;;
56051;SDS011;41919;42.648;23.384;2023-05-07T09:54:25;6.10;;;3.60;;
56051;SDS011;41919;42.648;23.384;2023-05-07T09:56:53;4.28;;;3.58;;
56051;SDS011;41919;42.648;23.384;2023-05-07T09:59:20;3.47;;;3.17;;
56051;SDS011;41919;42.648;23.384;2023-05-07T10:01:47;3.58;;;3.28;;
56051;SDS011;41919;42.648;23.384;2023-05-07T10:04:14;3.03;;;2.75;;
56051;SDS011;41919;42.648;23.384;2023-05-07T10:06:39;3.58;;;2.72;;
56051;SDS011;41919;42.648;23.384;2023-05-07T10:09:06;4.15;;;3.22;;
56051;SDS011;41919;42.648;23.384;2023-05-07T10:11:35;2.92;;;2.70;;
56051;SDS011;41919;42.648;23.384;2023-05-07T10:14:02;4.90;;;3.03;;
56051;SDS011;41919;42.648;23.384;2023-05-07T10:16:34;3.65;;;2.83;;
56051;SDS011;41919;42.648;23.384;2023-05-07T10:19:04;4.05;;;3.08;;
56051;SDS011;41919;42.648;23.384;2023-05-07T10:21:31;4.72;;;3.25;;
56051;SDS011;41919;42.648;23.384;2023-05-07T10:24:04;3.97;;;3.30;;
56051;SDS011;41919;42.648;23.384;2023-05-07T10:26:35;4.82;;;3.20;;
56051;SDS011;41919;42.648;23.384;2023-05-07T10:29:07;4.38;;;3.22;;
56051;SDS011;41919;42.648;23.384;2023-05-07T10:34:15;4.63;;;3.25;;
56051;SDS011;41919;42.648;23.384;2023-05-07T10:36:46;6.30;;;3.92;;
56051;SDS011;41919;42.648;23.384;2023-05-07T10:39:12;8.15;;;3.80;;
56051;SDS011;41919;42.648;23.384;2023-05-07T10:41:38;4.55;;;3.63;;
56051;SDS011;41919;42.648;23.384;2023-05-07T10:44:04;4.30;;;3.70;;
56051;SDS011;41919;42.648;23.384;2023-05-07T10:46:30;3.70;;;3.40;;
56051;SDS011;41919;42.648;23.384;2023-05-07T10:51:27;3.88;;;3.45;;
56051;SDS011;41919;42.648;23.384;2023-05-07T10:56:37;5.40;;;3.55;;
56051;SDS011;41919;42.648;23.384;2023-05-07T11:01:57;3.70;;;3.30;;
56051;SDS011;41919;42.648;23.384;2023-05-07T11:04:24;3.95;;;3.60;;
56051;SDS011;41919;42.648;23.384;2023-05-07T11:09:58;4.22;;;3.80;;
56051;SDS011;41919;42.648;23.384;2023-05-07T11:12:59;3.70;;;3.28;;
56051;SDS011;41919;42.648;23.384;2023-05-07T11:18:14;5.10;;;3.35;;
56051;SDS011;41919;42.648;23.384;2023-05-07T11:26:00;5.70;;;4.30;;
56051;SDS011;41919;42.648;23.384;2023-05-07T11:28:28;4.15;;;3.40;;
56051;SDS011;41919;42.648;23.384;2023-05-07T11:30:54;3.47;;;3.17;;
56051;SDS011;41919;42.648;23.384;2023-05-07T11:33:22;4.65;;;3.20;;
56051;SDS011;41919;42.648;23.384;2023-05-07T11:35:48;3.28;;;2.97;;
56051;SDS011;41919;42.648;23.384;2023-05-07T11:38:13;4.10;;;3.70;;
56051;SDS011;41919;42.648;23.384;2023-05-07T11:40:49;3.25;;;2.95;;
56051;SDS011;41919;42.648;23.384;2023-05-07T11:43:18;5.28;;;3.40;;
56051;SDS011;41919;42.648;23.384;2023-05-07T11:45:44;3.25;;;2.95;;
56051;SDS011;41919;42.648;23.384;2023-05-07T11:48:11;4.97;;;3.47;;
56051;SDS011;41919;42.648;23.384;2023-05-07T11:50:49;5.60;;;3.83;;
56051;SDS011;41919;42.648;23.384;2023-05-07T11:53:19;4.07;;;3.47;;
56051;SDS011;41919;42.648;23.384;2023-05-07T11:55:45;4.57;;;3.78;;
56051;SDS011;41919;42.648;23.384;2023-05-07T11:58:11;4.57;;;3.38;;
56051;SDS011;41919;42.648;23.384;2023-05-07T12:00:38;4.50;;;3.70;;
56051;SDS011;41919;42.648;23.384;2023-05-07T12:03:04;4.22;;;3.80;;
56051;SDS011;41919;42.648;23.384;2023-05-07T12:05:30;4.97;;;3.70;;
56051;SDS011;41919;42.648;23.384;2023-05-07T12:07:56;6.25;;;3.90;;
56051;SDS011;41919;42.648;23.384;2023-05-07T12:10:22;15.20;;;10.95;;
56051;SDS011;41919;42.648;23.384;2023-05-07T12:12:49;4.63;;;3.97;;
56051;SDS011;41919;42.648;23.384;2023-05-07T12:15:15;4.03;;;3.63;;
56051;SDS011;41919;42.648;23.384;2023-05-07T12:17:42;4.32;;;3.92;;
56051;SDS011;41919;42.648;23.384;2023-05-07T12:20:08;4.00;;;3.15;;
56051;SDS011;41919;42.648;23.384;2023-05-07T12:22:35;4.25;;;3.38;;
56051;SDS011;41919;42.648;23.384;2023-05-07T12:25:01;4.07;;;3.28;;
56051;SDS011;41919;42.648;23.384;2023-05-07T12:27:27;3.92;;;3.10;;
56051;SDS011;41919;42.648;23.384;2023-05-07T12:29:53;4.22;;;3.25;;
56051;SDS011;41919;42.648;23.384;2023-05-07T12:32:19;4.47;;;3.80;;
56051;SDS011;41919;42.648;23.384;2023-05-07T12:34:46;4.97;;;3.70;;
56051;SDS011;41919;42.648;23.384;2023-05-07T12:37:14;5.63;;;3.97;;
56051;SDS011;41919;42.648;23.384;2023-05-07T12:39:49;4.50;;;3.53;;
56051;SDS011;41919;42.648;23.384;2023-05-07T12:42:32;4.25;;;3.67;;
56051;SDS011;41919;42.648;23.384;2023-05-07T12:45:00;3.90;;;3.53;;
56051;SDS011;41919;42.648;23.384;2023-05-07T12:47:32;3.80;;;3.45;;
56051;SDS011;41919;42.648;23.384;2023-05-07T12:49:58;4.30;;;3.80;;
56051;SDS011;41919;42.648;23.384;2023-05-07T12:52:24;4.70;;;3.22;;
56051;SDS011;41919;42.648;23.384;2023-05-07T12:54:50;6.00;;;3.50;;
56051;SDS011;41919;42.648;23.384;2023-05-07T12:57:15;4.45;;;3.80;;
56051;SDS011;41919;42.648;23.384;2023-05-07T12:59:44;5.60;;;3.13;;
56051;SDS011;41919;42.648;23.384;2023-05-07T13:02:10;10.02;;;7.35;;
56051;SDS011;41919;42.648;23.384;2023-05-07T13:04:35;4.18;;;3.75;;
56051;SDS011;41919;42.648;23.384;2023-05-07T13:07:01;5.20;;;4.10;;
56051;SDS011;41919;42.648;23.384;2023-05-07T13:09:27;4.22;;;3.30;;
56051;SDS011;41919;42.648;23.384;2023-05-07T13:11:54;3.88;;;3.58;;
56051;SDS011;41919;42.648;23.384;2023-05-07T13:14:19;3.55;;;3.20;;
56051;SDS011;41919;42.648;23.384;2023-05-07T13:16:46;5.60;;;2.88;;
56051;SDS011;41919;42.648;23.384;2023-05-07T13:19:12;3.00;;;2.70;;
56051;SDS011;41919;42.648;23.384;2023-05-07T13:21:37;3.13;;;2.90;;
56051;SDS011;41919;42.648;23.384;2023-05-07T13:24:02;3.70;;;2.97;;
56051;SDS011;41919;42.648;23.384;2023-05-07T13:26:29;2.72;;;2.53;;
56051;SDS011;41919;42.648;23.384;2023-05-07T13:28:55;2.97;;;2.67;;
56051;SDS011;41919;42.648;23.384;2023-05-07T13:31:21;2.70;;;2.50;;
56051;SDS011;41919;42.648;23.384;2023-05-07T13:33:46;3.17;;;2.78;;
56051;SDS011;41919;42.648;23.384;2023-05-07T13:36:12;2.65;;;2.45;;
56051;SDS011;41919;42.648;23.384;2023-05-07T13:38:38;4.00;;;2.20;;
56051;SDS011;41919;42.648;23.384;2023-05-07T13:41:04;3.63;;;2.42;;
56051;SDS011;41919;42.648;23.384;2023-05-07T13:43:30;2.63;;;2.33;;
56051;SDS011;41919;42.648;23.384;2023-05-07T13:45:56;3.50;;;2.42;;
56051;SDS011;41919;42.648;23.384;2023-05-07T13:48:22;6.22;;;2.95;;
56051;SDS011;41919;42.648;23.384;2023-05-07T13:50:47;2.35;;;2.15;;
56051;SDS011;41919;42.648;23.384;2023-05-07T13:53:13;2.88;;;2.60;;
56051;SDS011;41919;42.648;23.384;2023-05-07T13:55:40;2.67;;;2.47;;
56051;SDS011;41919;42.648;23.384;2023-05-07T13:58:06;3.00;;;2.67;;
56051;SDS011;41919;42.648;23.384;2023-05-07T14:00:31;4.03;;;2.63;;
56051;SDS011;41919;42.648;23.384;2023-05-07T14:02:56;2.95;;;2.30;;
56051;SDS011;41919;42.648;23.384;2023-05-07T14:05:22;3.20;;;2.90;;
56051;SDS011;41919;42.648;23.384;2023-05-07T14:07:49;2.50;;;2.30;;
56051;SDS011;41919;42.648;23.384;2023-05-07T14:10:17;2.83;;;2.53;;
56051;SDS011;41919;42.648;23.384;2023-05-07T14:12:43;3.05;;;2.58;;
56051;SDS011;41919;42.648;23.384;2023-05-07T14:15:09;5.53;;;2.80;;
56051;SDS011;41919;42.648;23.384;2023-05-07T14:17:35;3.53;;;2.40;;
56051;SDS011;41919;42.648;23.384;2023-05-07T14:20:02;4.38;;;2.47;;
56051;SDS011;41919;42.648;23.384;2023-05-07T14:22:28;6.10;;;2.30;;
56051;SDS011;41919;42.648;23.384;2023-05-07T14:24:53;2.35;;;2.15;;
56051;SDS011;41919;42.648;23.384;2023-05-07T14:27:19;3.85;;;2.40;;
56051;SDS011;41919;42.648;23.384;2023-05-07T14:29:44;2.80;;;2.58;;
56051;SDS011;41919;42.648;23.384;2023-05-07T14:32:10;3.85;;;2.50;;
56051;SDS011;41919;42.648;23.384;2023-05-07T14:34:36;2.72;;;2.50;;
56051;SDS011;41919;42.648;23.384;2023-05-07T14:37:01;3.38;;;2.75;;
56051;SDS011;41919;42.648;23.384;2023-05-07T14:39:27;2.47;;;2.28;;
56051;SDS011;41919;42.648;23.384;2023-05-07T14:41:52;3.40;;;2.47;;
56051;SDS011;41919;42.648;23.384;2023-05-07T14:44:19;3.60;;;2.30;;
56051;SDS011;41919;42.648;23.384;2023-05-07T14:46:45;2.53;;;2.33;;
56051;SDS011;41919;42.648;23.384;2023-05-07T14:49:11;2.95;;;2.30;;